Terminal Aerodrome Forecast
Issued by NWS Charleston, WV

Current Version | Previous Version | Graphics & Text | Print | Product List | Glossary On
Versions: 1 2 3 4 5 6 7 8 9 10 11 12 13 14 15 16 17 18 19 20 21 22 23 24
000
FTUS41 KRLX 301700
TAFEKN
TAF
KEKN 301728Z 3018/3118 24005KT P6SM SCT050 SCT070
     FM302000 VRB03KT P6SM BKN045
     FM311000 23004KT 6SM -SHRA BR BKN150
     FM311600 25006KT 5SM -TSRA BR BKN035CB=

USA.gov is the U.S. government's official web portal to all federal, state and local government web resources and services.